sensor_id;sensor_type;location;lat;lon;timestamp;temperature;humidity
29031;DHT22;16122;50.236;11.734;2023-03-01T00:02:04;16.40;51.30
29031;DHT22;16122;50.236;11.734;2023-03-01T00:04:30;16.40;51.30
29031;DHT22;16122;50.236;11.734;2023-03-01T00:06:56;16.40;51.20
29031;DHT22;16122;50.236;11.734;2023-03-01T00:09:22;16.40;51.20
29031;DHT22;16122;50.236;11.734;2023-03-01T00:11:48;16.40;51.20
29031;DHT22;16122;50.236;11.734;2023-03-01T00:14:15;16.40;51.00
29031;DHT22;16122;50.236;11.734;2023-03-01T00:16:43;16.40;51.00
29031;DHT22;16122;50.236;11.734;2023-03-01T00:19:17;16.40;51.00
29031;DHT22;16122;50.236;11.734;2023-03-01T00:21:43;16.40;50.90
29031;DHT22;16122;50.236;11.734;2023-03-01T00:24:10;16.40;50.90
29031;DHT22;16122;50.236;11.734;2023-03-01T00:26:36;16.40;50.90
29031;DHT22;16122;50.236;11.734;2023-03-01T00:29:02;16.40;50.90
29031;DHT22;16122;50.236;11.734;2023-03-01T00:31:30;16.40;50.90
29031;DHT22;16122;50.236;11.734;2023-03-01T00:33:59;16.40;50.90
29031;DHT22;16122;50.236;11.734;2023-03-01T00:36:27;16.40;51.90
29031;DHT22;16122;50.236;11.734;2023-03-01T00:38:54;16.30;52.30
29031;DHT22;16122;50.236;11.734;2023-03-01T00:41:20;16.20;55.50
29031;DHT22;16122;50.236;11.734;2023-03-01T00:43:48;16.40;50.60
29031;DHT22;16122;50.236;11.734;2023-03-01T00:46:17;16.40;50.80
29031;DHT22;16122;50.236;11.734;2023-03-01T00:48:44;16.40;50.60
29031;DHT22;16122;50.236;11.734;2023-03-01T00:53:41;16.40;50.50
29031;DHT22;16122;50.236;11.734;2023-03-01T00:56:09;16.40;51.00
29031;DHT22;16122;50.236;11.734;2023-03-01T00:58:35;16.40;50.40
29031;DHT22;16122;50.236;11.734;2023-03-01T01:01:11;16.40;50.40
29031;DHT22;16122;50.236;11.734;2023-03-01T01:03:47;16.40;50.40
29031;DHT22;16122;50.236;11.734;2023-03-01T01:06:35;16.40;50.90
29031;DHT22;16122;50.236;11.734;2023-03-01T01:09:03;16.40;50.40
29031;DHT22;16122;50.236;11.734;2023-03-01T01:11:30;16.30;50.30
29031;DHT22;16122;50.236;11.734;2023-03-01T01:13:56;16.40;50.20
29031;DHT22;16122;50.236;11.734;2023-03-01T01:16:25;16.40;50.30
29031;DHT22;16122;50.236;11.734;2023-03-01T01:18:51;16.40;50.20
29031;DHT22;16122;50.236;11.734;2023-03-01T01:21:19;16.40;50.20
29031;DHT22;16122;50.236;11.734;2023-03-01T01:23:47;16.40;50.10
29031;DHT22;16122;50.236;11.734;2023-03-01T01:26:18;16.40;50.10
29031;DHT22;16122;50.236;11.734;2023-03-01T01:28:45;16.40;50.00
29031;DHT22;16122;50.236;11.734;2023-03-01T01:31:11;16.40;50.10
29031;DHT22;16122;50.236;11.734;2023-03-01T01:33:36;16.40;50.00
29031;DHT22;16122;50.236;11.734;2023-03-01T01:36:04;16.40;50.00
29031;DHT22;16122;50.236;11.734;2023-03-01T01:38:30;16.40;50.00
29031;DHT22;16122;50.236;11.734;2023-03-01T01:40:56;16.40;49.90
29031;DHT22;16122;50.236;11.734;2023-03-01T01:43:26;16.40;49.90
29031;DHT22;16122;50.236;11.734;2023-03-01T01:48:46;16.40;49.80
29031;DHT22;16122;50.236;11.734;2023-03-01T01:51:18;16.40;49.90
29031;DHT22;16122;50.236;11.734;2023-03-01T01:53:48;16.40;49.70
29031;DHT22;16122;50.236;11.734;2023-03-01T01:56:16;16.40;50.40
29031;DHT22;16122;50.236;11.734;2023-03-01T01:58:42;16.40;49.70
29031;DHT22;16122;50.236;11.734;2023-03-01T02:01:09;16.40;49.80
29031;DHT22;16122;50.236;11.734;2023-03-01T02:03:37;16.40;49.80
29031;DHT22;16122;50.236;11.734;2023-03-01T02:06:27;16.40;50.10
29031;DHT22;16122;50.236;11.734;2023-03-01T02:08:59;16.50;49.90
29031;DHT22;16122;50.236;11.734;2023-03-01T02:11:26;16.40;50.00
29031;DHT22;16122;50.236;11.734;2023-03-01T02:13:54;16.50;49.80
29031;DHT22;16122;50.236;11.734;2023-03-01T02:16:20;16.50;49.70
29031;DHT22;16122;50.236;11.734;2023-03-01T02:18:47;16.50;49.70
29031;DHT22;16122;50.236;11.734;2023-03-01T02:23:57;16.50;49.70
29031;DHT22;16122;50.236;11.734;2023-03-01T02:26:36;16.50;49.70
29031;DHT22;16122;50.236;11.734;2023-03-01T02:29:06;16.50;49.60
29031;DHT22;16122;50.236;11.734;2023-03-01T02:31:32;16.50;49.60
29031;DHT22;16122;50.236;11.734;2023-03-01T02:34:09;16.50;49.60
29031;DHT22;16122;50.236;11.734;2023-03-01T02:36:42;16.50;49.60
29031;DHT22;16122;50.236;11.734;2023-03-01T02:39:15;16.50;49.60
29031;DHT22;16122;50.236;11.734;2023-03-01T02:41:46;16.50;49.60
29031;DHT22;16122;50.236;11.734;2023-03-01T02:44:13;16.50;49.50
29031;DHT22;16122;50.236;11.734;2023-03-01T02:46:53;16.50;49.60
29031;DHT22;16122;50.236;11.734;2023-03-01T02:49:21;16.50;49.50
29031;DHT22;16122;50.236;11.734;2023-03-01T02:56:59;16.50;49.50
29031;DHT22;16122;50.236;11.734;2023-03-01T02:59:31;16.50;49.40
29031;DHT22;16122;50.236;11.734;2023-03-01T03:02:00;16.50;49.80
29031;DHT22;16122;50.236;11.734;2023-03-01T03:04:26;16.50;49.40
29031;DHT22;16122;50.236;11.734;2023-03-01T03:06:52;16.50;49.30
29031;DHT22;16122;50.236;11.734;2023-03-01T03:09:18;16.50;49.30
29031;DHT22;16122;50.236;11.734;2023-03-01T03:11:45;16.90;50.00
29031;DHT22;16122;50.236;11.734;2023-03-01T03:14:13;16.50;49.40
29031;DHT22;16122;50.236;11.734;2023-03-01T03:16:43;16.50;49.40
29031;DHT22;16122;50.236;11.734;2023-03-01T03:19:10;16.50;49.30
29031;DHT22;16122;50.236;11.734;2023-03-01T03:21:35;16.50;49.80
29031;DHT22;16122;50.236;11.734;2023-03-01T03:24:02;16.50;49.70
29031;DHT22;16122;50.236;11.734;2023-03-01T03:26:28;16.50;49.30
29031;DHT22;16122;50.236;11.734;2023-03-01T03:28:54;16.50;49.20
29031;DHT22;16122;50.236;11.734;2023-03-01T03:31:20;16.50;49.20
29031;DHT22;16122;50.236;11.734;2023-03-01T03:33:46;16.50;49.20
29031;DHT22;16122;50.236;11.734;2023-03-01T03:36:19;16.50;49.20
29031;DHT22;16122;50.236;11.734;2023-03-01T03:38:45;16.50;49.10
29031;DHT22;16122;50.236;11.734;2023-03-01T03:41:12;16.50;49.10
29031;DHT22;16122;50.236;11.734;2023-03-01T03:43:39;16.50;49.10
29031;DHT22;16122;50.236;11.734;2023-03-01T03:46:06;16.50;49.10
29031;DHT22;16122;50.236;11.734;2023-03-01T03:48:41;16.50;49.00
29031;DHT22;16122;50.236;11.734;2023-03-01T03:51:10;16.50;49.00
29031;DHT22;16122;50.236;11.734;2023-03-01T03:53:36;16.50;49.00
29031;DHT22;16122;50.236;11.734;2023-03-01T03:56:02;16.50;49.00
29031;DHT22;16122;50.236;11.734;2023-03-01T03:58:28;16.50;49.00
29031;DHT22;16122;50.236;11.734;2023-03-01T04:00:56;16.50;49.00
29031;DHT22;16122;50.236;11.734;2023-03-01T04:03:23;16.60;49.10
29031;DHT22;16122;50.236;11.734;2023-03-01T04:05:50;16.50;49.00
29031;DHT22;16122;50.236;11.734;2023-03-01T04:08:17;16.50;49.00
29031;DHT22;16122;50.236;11.734;2023-03-01T04:10:47;16.50;49.00
29031;DHT22;16122;50.236;11.734;2023-03-01T04:13:23;16.50;49.00
29031;DHT22;16122;50.236;11.734;2023-03-01T04:15:54;16.50;49.00
29031;DHT22;16122;50.236;11.734;2023-03-01T04:18:21;16.50;48.70
29031;DHT22;16122;50.236;11.734;2023-03-01T04:20:48;16.50;48.70
29031;DHT22;16122;50.236;11.734;2023-03-01T04:23:17;16.50;48.70
29031;DHT22;16122;50.236;11.734;2023-03-01T04:28:15;16.40;48.60
29031;DHT22;16122;50.236;11.734;2023-03-01T04:30:41;16.40;48.50
29031;DHT22;16122;50.236;11.734;2023-03-01T04:33:08;16.40;48.60
29031;DHT22;16122;50.236;11.734;2023-03-01T04:35:35;16.40;48.60
29031;DHT22;16122;50.236;11.734;2023-03-01T04:38:01;16.40;48.50
29031;DHT22;16122;50.236;11.734;2023-03-01T04:40:27;16.40;48.60
29031;DHT22;16122;50.236;11.734;2023-03-01T04:42:53;16.80;48.70
29031;DHT22;16122;50.236;11.734;2023-03-01T04:45:19;16.40;48.40
29031;DHT22;16122;50.236;11.734;2023-03-01T04:47:46;16.40;48.40
29031;DHT22;16122;50.236;11.734;2023-03-01T04:50:14;16.40;48.40
29031;DHT22;16122;50.236;11.734;2023-03-01T04:52:40;16.40;48.50
29031;DHT22;16122;50.236;11.734;2023-03-01T04:55:06;16.60;49.60
29031;DHT22;16122;50.236;11.734;2023-03-01T04:57:33;16.40;48.40
29031;DHT22;16122;50.236;11.734;2023-03-01T04:59:59;16.40;48.30
29031;DHT22;16122;50.236;11.734;2023-03-01T05:02:25;16.40;48.30
29031;DHT22;16122;50.236;11.734;2023-03-01T05:04:50;16.40;49.60
29031;DHT22;16122;50.236;11.734;2023-03-01T05:07:16;16.40;49.50
29031;DHT22;16122;50.236;11.734;2023-03-01T05:09:46;16.50;50.00
29031;DHT22;16122;50.236;11.734;2023-03-01T05:12:12;16.40;48.40
29031;DHT22;16122;50.236;11.734;2023-03-01T05:14:38;16.40;48.40
29031;DHT22;16122;50.236;11.734;2023-03-01T05:17:05;16.40;48.50
29031;DHT22;16122;50.236;11.734;2023-03-01T05:19:31;16.40;48.60
29031;DHT22;16122;50.236;11.734;2023-03-01T05:21:58;16.40;48.60
29031;DHT22;16122;50.236;11.734;2023-03-01T05:24:28;16.40;48.60
29031;DHT22;16122;50.236;11.734;2023-03-01T05:26:54;16.40;48.80
29031;DHT22;16122;50.236;11.734;2023-03-01T05:29:24;16.40;48.70
29031;DHT22;16122;50.236;11.734;2023-03-01T05:31:57;16.40;48.60
29031;DHT22;16122;50.236;11.734;2023-03-01T05:34:32;16.40;48.70
29031;DHT22;16122;50.236;11.734;2023-03-01T05:36:59;16.40;48.80
29031;DHT22;16122;50.236;11.734;2023-03-01T05:39:26;16.40;48.70
29031;DHT22;16122;50.236;11.734;2023-03-01T05:41:53;16.40;48.80
29031;DHT22;16122;50.236;11.734;2023-03-01T05:44:19;16.40;48.80
29031;DHT22;16122;50.236;11.734;2023-03-01T05:46:45;16.40;49.00
29031;DHT22;16122;50.236;11.734;2023-03-01T05:49:12;16.40;48.90
29031;DHT22;16122;50.236;11.734;2023-03-01T05:51:42;16.40;48.80
29031;DHT22;16122;50.236;11.734;2023-03-01T05:54:11;16.40;49.70
29031;DHT22;16122;50.236;11.734;2023-03-01T05:56:37;16.40;49.20
29031;DHT22;16122;50.236;11.734;2023-03-01T05:59:04;16.40;48.70
29031;DHT22;16122;50.236;11.734;2023-03-01T06:01:31;16.40;49.30
29031;DHT22;16122;50.236;11.734;2023-03-01T06:03:57;16.40;49.30
29031;DHT22;16122;50.236;11.734;2023-03-01T06:06:23;16.40;49.40
29031;DHT22;16122;50.236;11.734;2023-03-01T06:08:51;16.40;49.50
29031;DHT22;16122;50.236;11.734;2023-03-01T06:11:17;16.40;49.40
29031;DHT22;16122;50.236;11.734;2023-03-01T06:13:44;16.40;49.50
29031;DHT22;16122;50.236;11.734;2023-03-01T06:16:11;16.40;49.50
29031;DHT22;16122;50.236;11.734;2023-03-01T06:18:37;16.40;49.40
29031;DHT22;16122;50.236;11.734;2023-03-01T06:21:04;16.40;49.50
29031;DHT22;16122;50.236;11.734;2023-03-01T06:23:30;16.40;49.50
29031;DHT22;16122;50.236;11.734;2023-03-01T06:25:56;16.40;49.60
29031;DHT22;16122;50.236;11.734;2023-03-01T06:28:22;16.40;49.60
29031;DHT22;16122;50.236;11.734;2023-03-01T06:30:49;16.40;49.50
29031;DHT22;16122;50.236;11.734;2023-03-01T06:33:15;16.40;49.50
29031;DHT22;16122;50.236;11.734;2023-03-01T06:35:41;16.40;49.50
29031;DHT22;16122;50.236;11.734;2023-03-01T06:38:07;16.40;49.50
29031;DHT22;16122;50.236;11.734;2023-03-01T06:40:33;16.40;49.50
29031;DHT22;16122;50.236;11.734;2023-03-01T06:43:01;16.40;49.60
29031;DHT22;16122;50.236;11.734;2023-03-01T06:45:26;16.40;49.60
29031;DHT22;16122;50.236;11.734;2023-03-01T06:47:52;16.40;49.60
29031;DHT22;16122;50.236;11.734;2023-03-01T06:50:18;16.50;49.40
29031;DHT22;16122;50.236;11.734;2023-03-01T06:52:44;16.50;49.40
29031;DHT22;16122;50.236;11.734;2023-03-01T06:55:11;16.40;49.80
29031;DHT22;16122;50.236;11.734;2023-03-01T06:57:37;16.40;49.10
29031;DHT22;16122;50.236;11.734;2023-03-01T07:00:04;16.40;49.40
29031;DHT22;16122;50.236;11.734;2023-03-01T07:02:31;16.40;49.40
29031;DHT22;16122;50.236;11.734;2023-03-01T07:04:57;16.50;49.50
29031;DHT22;16122;50.236;11.734;2023-03-01T07:07:22;16.40;49.40
29031;DHT22;16122;50.236;11.734;2023-03-01T07:09:49;16.40;49.50
29031;DHT22;16122;50.236;11.734;2023-03-01T07:12:15;16.40;49.40
29031;DHT22;16122;50.236;11.734;2023-03-01T07:14:41;16.40;49.50
29031;DHT22;16122;50.236;11.734;2023-03-01T07:17:08;16.40;49.50
29031;DHT22;16122;50.236;11.734;2023-03-01T07:19:34;16.40;49.50
29031;DHT22;16122;50.236;11.734;2023-03-01T07:22:00;16.40;49.60
29031;DHT22;16122;50.236;11.734;2023-03-01T07:26:56;16.40;49.70
29031;DHT22;16122;50.236;11.734;2023-03-01T07:29:22;16.40;49.70
29031;DHT22;16122;50.236;11.734;2023-03-01T07:31:48;16.40;49.70
29031;DHT22;16122;50.236;11.734;2023-03-01T07:34:14;16.40;49.60
29031;DHT22;16122;50.236;11.734;2023-03-01T07:36:40;16.40;49.70
29031;DHT22;16122;50.236;11.734;2023-03-01T07:39:09;16.40;49.70
29031;DHT22;16122;50.236;11.734;2023-03-01T07:41:35;16.40;49.50
29031;DHT22;16122;50.236;11.734;2023-03-01T07:44:01;16.40;49.40
29031;DHT22;16122;50.236;11.734;2023-03-01T07:46:27;16.40;49.50
29031;DHT22;16122;50.236;11.734;2023-03-01T07:48:53;16.40;49.40
29031;DHT22;16122;50.236;11.734;2023-03-01T07:51:19;16.40;49.50
29031;DHT22;16122;50.236;11.734;2023-03-01T07:53:48;16.40;49.60
29031;DHT22;16122;50.236;11.734;2023-03-01T07:56:15;16.40;49.50
29031;DHT22;16122;50.236;11.734;2023-03-01T07:58:43;16.40;49.50
29031;DHT22;16122;50.236;11.734;2023-03-01T08:01:16;16.40;49.20
29031;DHT22;16122;50.236;11.734;2023-03-01T08:03:42;16.40;49.50
29031;DHT22;16122;50.236;11.734;2023-03-01T08:06:10;16.40;49.60
29031;DHT22;16122;50.236;11.734;2023-03-01T08:08:36;16.40;49.60
29031;DHT22;16122;50.236;11.734;2023-03-01T08:11:04;16.40;49.70
29031;DHT22;16122;50.236;11.734;2023-03-01T08:13:31;16.40;49.70
29031;DHT22;16122;50.236;11.734;2023-03-01T08:16:05;16.40;49.80
29031;DHT22;16122;50.236;11.734;2023-03-01T08:18:32;16.40;49.80
29031;DHT22;16122;50.236;11.734;2023-03-01T08:21:09;16.40;49.80
29031;DHT22;16122;50.236;11.734;2023-03-01T08:23:35;16.40;49.90
29031;DHT22;16122;50.236;11.734;2023-03-01T08:26:08;16.40;49.90
29031;DHT22;16122;50.236;11.734;2023-03-01T08:28:34;16.40;49.90
29031;DHT22;16122;50.236;11.734;2023-03-01T08:30:59;16.40;49.80
29031;DHT22;16122;50.236;11.734;2023-03-01T08:33:25;16.40;49.80
29031;DHT22;16122;50.236;11.734;2023-03-01T08:35:51;16.40;50.10
29031;DHT22;16122;50.236;11.734;2023-03-01T08:38:16;16.40;49.70
29031;DHT22;16122;50.236;11.734;2023-03-01T08:40:42;16.40;49.50
29031;DHT22;16122;50.236;11.734;2023-03-01T08:43:08;16.40;49.40
29031;DHT22;16122;50.236;11.734;2023-03-01T08:45:33;16.40;49.30
29031;DHT22;16122;50.236;11.734;2023-03-01T08:47:59;16.40;49.20
29031;DHT22;16122;50.236;11.734;2023-03-01T08:50:25;16.40;49.20
29031;DHT22;16122;50.236;11.734;2023-03-01T08:52:51;16.50;49.30
29031;DHT22;16122;50.236;11.734;2023-03-01T08:55:16;16.40;49.20
29031;DHT22;16122;50.236;11.734;2023-03-01T08:57:43;16.50;49.30
29031;DHT22;16122;50.236;11.734;2023-03-01T09:00:09;16.40;49.00
29031;DHT22;16122;50.236;11.734;2023-03-01T09:02:36;16.50;49.60
29031;DHT22;16122;50.236;11.734;2023-03-01T09:05:02;16.50;49.70
29031;DHT22;16122;50.236;11.734;2023-03-01T09:07:28;16.40;49.60
29031;DHT22;16122;50.236;11.734;2023-03-01T09:09:53;16.50;49.80
29031;DHT22;16122;50.236;11.734;2023-03-01T09:12:20;16.50;49.80
29031;DHT22;16122;50.236;11.734;2023-03-01T09:14:46;16.50;49.90
29031;DHT22;16122;50.236;11.734;2023-03-01T09:17:12;16.50;49.70
29031;DHT22;16122;50.236;11.734;2023-03-01T09:19:37;16.50;49.70
29031;DHT22;16122;50.236;11.734;2023-03-01T09:22:04;16.40;49.70
29031;DHT22;16122;50.236;11.734;2023-03-01T09:24:29;16.50;49.80
29031;DHT22;16122;50.236;11.734;2023-03-01T09:26:55;16.50;49.90
29031;DHT22;16122;50.236;11.734;2023-03-01T09:29:21;16.50;49.70
29031;DHT22;16122;50.236;11.734;2023-03-01T09:31:47;16.50;49.90
29031;DHT22;16122;50.236;11.734;2023-03-01T09:34:12;16.50;49.70
29031;DHT22;16122;50.236;11.734;2023-03-01T09:36:41;16.50;49.70
29031;DHT22;16122;50.236;11.734;2023-03-01T09:39:07;16.50;49.80
29031;DHT22;16122;50.236;11.734;2023-03-01T09:41:36;16.50;49.70
29031;DHT22;16122;50.236;11.734;2023-03-01T09:46:49;16.50;49.70
29031;DHT22;16122;50.236;11.734;2023-03-01T09:49:21;16.50;49.70
29031;DHT22;16122;50.236;11.734;2023-03-01T09:54:19;16.50;49.60
29031;DHT22;16122;50.236;11.734;2023-03-01T09:57:05;16.50;49.70
29031;DHT22;16122;50.236;11.734;2023-03-01T10:02:00;16.50;49.60
29031;DHT22;16122;50.236;11.734;2023-03-01T10:07:12;16.50;49.60
29031;DHT22;16122;50.236;11.734;2023-03-01T10:09:43;16.50;49.60
29031;DHT22;16122;50.236;11.734;2023-03-01T10:12:15;16.50;49.60
29031;DHT22;16122;50.236;11.734;2023-03-01T10:15:03;16.50;49.80
29031;DHT22;16122;50.236;11.734;2023-03-01T10:20:24;16.60;50.10
29031;DHT22;16122;50.236;11.734;2023-03-01T10:22:50;16.60;50.20
29031;DHT22;16122;50.236;11.734;2023-03-01T10:25:28;16.60;50.30
29031;DHT22;16122;50.236;11.734;2023-03-01T10:27:59;16.60;50.40
29031;DHT22;16122;50.236;11.734;2023-03-01T10:30:33;16.60;50.40
29031;DHT22;16122;50.236;11.734;2023-03-01T10:33:00;16.60;50.40
29031;DHT22;16122;50.236;11.734;2023-03-01T10:35:31;16.60;50.50
29031;DHT22;16122;50.236;11.734;2023-03-01T10:38:05;16.60;50.60
29031;DHT22;16122;50.236;11.734;2023-03-01T10:40:32;16.60;50.50
29031;DHT22;16122;50.236;11.734;2023-03-01T10:42:58;16.60;50.60
29031;DHT22;16122;50.236;11.734;2023-03-01T10:45:37;16.60;50.70
29031;DHT22;16122;50.236;11.734;2023-03-01T10:48:03;16.60;50.80
29031;DHT22;16122;50.236;11.734;2023-03-01T10:50:30;16.60;50.60
29031;DHT22;16122;50.236;11.734;2023-03-01T10:53:03;16.60;50.60
29031;DHT22;16122;50.236;11.734;2023-03-01T11:00:32;16.70;50.60
29031;DHT22;16122;50.236;11.734;2023-03-01T11:05:24;16.70;50.90
29031;DHT22;16122;50.236;11.734;2023-03-01T11:07:55;16.70;51.00
29031;DHT22;16122;50.236;11.734;2023-03-01T11:12:51;16.70;51.10
29031;DHT22;16122;50.236;11.734;2023-03-01T11:15:25;16.70;51.10
29031;DHT22;16122;50.236;11.734;2023-03-01T11:17:52;16.70;51.10
29031;DHT22;16122;50.236;11.734;2023-03-01T11:22:46;16.70;51.10
29031;DHT22;16122;50.236;11.734;2023-03-01T11:25:13;16.80;51.30
29031;DHT22;16122;50.236;11.734;2023-03-01T11:27:43;16.80;51.40
29031;DHT22;16122;50.236;11.734;2023-03-01T11:32:42;16.80;51.50
29031;DHT22;16122;50.236;11.734;2023-03-01T11:35:13;16.80;51.50
29031;DHT22;16122;50.236;11.734;2023-03-01T11:45:10;16.80;51.70
29031;DHT22;16122;50.236;11.734;2023-03-01T11:47:43;16.60;51.60
29031;DHT22;16122;50.236;11.734;2023-03-01T12:08:48;16.80;52.30
29031;DHT22;16122;50.236;11.734;2023-03-01T12:16:35;16.80;52.30
29031;DHT22;16122;50.236;11.734;2023-03-01T12:24:47;16.80;52.20
29031;DHT22;16122;50.236;11.734;2023-03-01T12:29:47;16.80;52.30
29031;DHT22;16122;50.236;11.734;2023-03-01T12:42:58;16.80;52.20
29031;DHT22;16122;50.236;11.734;2023-03-01T12:45:34;16.80;52.20
29031;DHT22;16122;50.236;11.734;2023-03-01T12:51:04;16.80;52.20
29031;DHT22;16122;50.236;11.734;2023-03-01T12:53:35;16.80;52.40
29031;DHT22;16122;50.236;11.734;2023-03-01T12:56:08;16.80;52.90
29031;DHT22;16122;50.236;11.734;2023-03-01T13:04:02;16.80;52.30
29031;DHT22;16122;50.236;11.734;2023-03-01T13:09:41;16.80;52.30
29031;DHT22;16122;50.236;11.734;2023-03-01T13:17:52;16.80;52.50
29031;DHT22;16122;50.236;11.734;2023-03-01T13:20:19;16.80;52.60
29031;DHT22;16122;50.236;11.734;2023-03-01T13:22:46;16.80;52.60
29031;DHT22;16122;50.236;11.734;2023-03-01T13:27:38;16.80;52.60
29031;DHT22;16122;50.236;11.734;2023-03-01T13:30:12;16.80;52.60
29031;DHT22;16122;50.236;11.734;2023-03-01T13:32:50;16.80;52.60
29031;DHT22;16122;50.236;11.734;2023-03-01T13:37:42;16.80;52.60
29031;DHT22;16122;50.236;11.734;2023-03-01T13:42:59;16.80;52.70
29031;DHT22;16122;50.236;11.734;2023-03-01T13:45:45;16.80;52.70
29031;DHT22;16122;50.236;11.734;2023-03-01T13:48:15;16.80;52.70
29031;DHT22;16122;50.236;11.734;2023-03-01T13:50:46;16.80;52.60
29031;DHT22;16122;50.236;11.734;2023-03-01T13:53:17;16.80;52.50
29031;DHT22;16122;50.236;11.734;2023-03-01T13:55:44;16.80;52.70
29031;DHT22;16122;50.236;11.734;2023-03-01T13:58:15;16.80;52.80
29031;DHT22;16122;50.236;11.734;2023-03-01T14:00:41;16.80;52.70
29031;DHT22;16122;50.236;11.734;2023-03-01T14:05:36;16.80;53.00
29031;DHT22;16122;50.236;11.734;2023-03-01T14:08:03;16.80;53.20
29031;DHT22;16122;50.236;11.734;2023-03-01T14:10:35;16.80;53.00
29031;DHT22;16122;50.236;11.734;2023-03-01T14:13:28;16.80;53.10
29031;DHT22;16122;50.236;11.734;2023-03-01T14:16:38;16.80;53.00
29031;DHT22;16122;50.236;11.734;2023-03-01T14:21:00;16.80;53.80
29031;DHT22;16122;50.236;11.734;2023-03-01T14:23:26;16.80;53.60
29031;DHT22;16122;50.236;11.734;2023-03-01T14:25:53;16.80;53.80
29031;DHT22;16122;50.236;11.734;2023-03-01T14:28:20;16.80;53.80
29031;DHT22;16122;50.236;11.734;2023-03-01T14:33:20;16.80;53.90
29031;DHT22;16122;50.236;11.734;2023-03-01T14:36:00;16.80;53.90
29031;DHT22;16122;50.236;11.734;2023-03-01T14:41:01;16.80;53.90
29031;DHT22;16122;50.236;11.734;2023-03-01T14:43:28;16.80;53.80
29031;DHT22;16122;50.236;11.734;2023-03-01T14:45:54;16.80;53.80
29031;DHT22;16122;50.236;11.734;2023-03-01T14:48:20;16.80;54.00
29031;DHT22;16122;50.236;11.734;2023-03-01T14:50:46;16.80;54.30
29031;DHT22;16122;50.236;11.734;2023-03-01T14:53:19;16.80;53.80
29031;DHT22;16122;50.236;11.734;2023-03-01T14:55:46;16.80;53.80
29031;DHT22;16122;50.236;11.734;2023-03-01T14:58:13;17.00;54.10
29031;DHT22;16122;50.236;11.734;2023-03-01T15:00:40;16.90;53.80
29031;DHT22;16122;50.236;11.734;2023-03-01T15:03:13;16.80;54.10
29031;DHT22;16122;50.236;11.734;2023-03-01T15:05:40;16.80;54.30
29031;DHT22;16122;50.236;11.734;2023-03-01T15:08:07;17.20;57.30
29031;DHT22;16122;50.236;11.734;2023-03-01T15:10:34;16.90;53.80
29031;DHT22;16122;50.236;11.734;2023-03-01T15:13:10;16.80;53.60
29031;DHT22;16122;50.236;11.734;2023-03-01T15:15:45;16.80;53.70
29031;DHT22;16122;50.236;11.734;2023-03-01T15:18:16;16.80;53.70
29031;DHT22;16122;50.236;11.734;2023-03-01T15:20:43;16.80;53.60
29031;DHT22;16122;50.236;11.734;2023-03-01T15:23:23;16.80;54.00
29031;DHT22;16122;50.236;11.734;2023-03-01T15:25:49;16.90;54.10
29031;DHT22;16122;50.236;11.734;2023-03-01T15:30:57;16.80;54.00
29031;DHT22;16122;50.236;11.734;2023-03-01T15:35:52;16.80;53.90
29031;DHT22;16122;50.236;11.734;2023-03-01T15:40:50;16.80;53.80
29031;DHT22;16122;50.236;11.734;2023-03-01T15:46:00;16.80;53.90
29031;DHT22;16122;50.236;11.734;2023-03-01T15:48:26;16.80;54.00
29031;DHT22;16122;50.236;11.734;2023-03-01T15:50:58;16.80;53.80
29031;DHT22;16122;50.236;11.734;2023-03-01T15:53:24;16.80;53.80
29031;DHT22;16122;50.236;11.734;2023-03-01T15:55:52;16.80;54.00
29031;DHT22;16122;50.236;11.734;2023-03-01T15:58:19;16.80;53.90
29031;DHT22;16122;50.236;11.734;2023-03-01T16:00:46;16.80;53.80
29031;DHT22;16122;50.236;11.734;2023-03-01T16:03:14;16.80;54.00
29031;DHT22;16122;50.236;11.734;2023-03-01T16:05:40;16.80;53.80
29031;DHT22;16122;50.236;11.734;2023-03-01T16:08:06;16.80;53.80
29031;DHT22;16122;50.236;11.734;2023-03-01T16:10:32;16.80;53.90
29031;DHT22;16122;50.236;11.734;2023-03-01T16:12:58;16.80;53.70
29031;DHT22;16122;50.236;11.734;2023-03-01T16:15:25;16.80;53.60
29031;DHT22;16122;50.236;11.734;2023-03-01T16:17:51;16.80;53.40
29031;DHT22;16122;50.236;11.734;2023-03-01T16:20:21;16.80;53.10
29031;DHT22;16122;50.236;11.734;2023-03-01T16:22:47;16.80;53.20
29031;DHT22;16122;50.236;11.734;2023-03-01T16:25:13;16.80;53.40
29031;DHT22;16122;50.236;11.734;2023-03-01T16:27:43;16.80;53.30
29031;DHT22;16122;50.236;11.734;2023-03-01T16:30:10;16.80;53.30
29031;DHT22;16122;50.236;11.734;2023-03-01T16:32:39;16.80;53.20
29031;DHT22;16122;50.236;11.734;2023-03-01T16:35:06;16.80;53.20
29031;DHT22;16122;50.236;11.734;2023-03-01T16:37:32;16.80;53.30
29031;DHT22;16122;50.236;11.734;2023-03-01T16:39:58;16.80;53.20
29031;DHT22;16122;50.236;11.734;2023-03-01T16:42:24;16.80;53.30
29031;DHT22;16122;50.236;11.734;2023-03-01T16:44:56;16.80;53.40
29031;DHT22;16122;50.236;11.734;2023-03-01T16:47:22;16.80;53.40
29031;DHT22;16122;50.236;11.734;2023-03-01T16:49:51;16.80;53.50
29031;DHT22;16122;50.236;11.734;2023-03-01T16:52:17;16.70;53.40
29031;DHT22;16122;50.236;11.734;2023-03-01T16:54:42;16.70;53.40
29031;DHT22;16122;50.236;11.734;2023-03-01T16:57:08;16.70;53.40
29031;DHT22;16122;50.236;11.734;2023-03-01T16:59:34;16.70;53.60
29031;DHT22;16122;50.236;11.734;2023-03-01T17:02:00;16.70;53.50
29031;DHT22;16122;50.236;11.734;2023-03-01T17:04:26;16.70;53.20
29031;DHT22;16122;50.236;11.734;2023-03-01T17:06:51;16.70;53.10
29031;DHT22;16122;50.236;11.734;2023-03-01T17:09:17;16.60;52.80
29031;DHT22;16122;50.236;11.734;2023-03-01T17:11:43;16.60;53.00
29031;DHT22;16122;50.236;11.734;2023-03-01T17:14:08;16.60;53.20
29031;DHT22;16122;50.236;11.734;2023-03-01T17:16:34;16.60;53.40
29031;DHT22;16122;50.236;11.734;2023-03-01T17:19:00;16.60;54.20
29031;DHT22;16122;50.236;11.734;2023-03-01T17:21:26;16.60;53.70
29031;DHT22;16122;50.236;11.734;2023-03-01T17:23:54;16.60;53.80
29031;DHT22;16122;50.236;11.734;2023-03-01T17:26:20;16.60;53.80
29031;DHT22;16122;50.236;11.734;2023-03-01T17:28:46;16.60;53.90
29031;DHT22;16122;50.236;11.734;2023-03-01T17:31:16;16.60;54.00
29031;DHT22;16122;50.236;11.734;2023-03-01T17:33:41;16.60;54.00
29031;DHT22;16122;50.236;11.734;2023-03-01T17:36:07;16.60;53.50
29031;DHT22;16122;50.236;11.734;2023-03-01T17:38:33;16.50;53.60
29031;DHT22;16122;50.236;11.734;2023-03-01T17:41:00;16.50;53.60
29031;DHT22;16122;50.236;11.734;2023-03-01T17:43:26;16.50;53.60